createdAt,value
2023-10-25T00:01:12.478Z,99968.75
2023-10-25T00:03:42.053Z,99964.41
2023-10-25T00:06:11.482Z,99967.00
2023-10-25T00:08:40.635Z,99966.94
2023-10-25T00:11:11.034Z,99960.94
2023-10-25T00:13:40.276Z,99965.28
2023-10-25T00:16:16.785Z,99963.53
2023-10-25T00:18:48.047Z,99970.63
2023-10-25T00:21:17.703Z,99969.63
2023-10-25T00:23:46.782Z,99967.00
2023-10-25T00:26:16.153Z,99970.63
2023-10-25T00:28:52.249Z,99965.28
2023-10-25T00:31:23.453Z,99963.53
2023-10-25T00:33:53.197Z,99958.97
2023-10-25T00:36:22.674Z,99950.97
2023-10-25T00:38:51.870Z,99954.53
2023-10-25T00:41:21.287Z,99956.31
2023-10-25T00:43:50.608Z,99945.94
2023-10-25T00:46:25.937Z,99950.38
2023-10-25T00:48:56.743Z,99943.13
2023-10-25T00:51:27.855Z,99943.13
2023-10-25T00:53:58.654Z,99937.72
2023-10-25T00:56:29.297Z,99934.97
2023-10-25T00:59:00.143Z,99939.47
2023-10-25T01:01:32.064Z,99933.25
2023-10-25T01:04:01.308Z,99936.78
2023-10-25T01:06:30.992Z,99927.13
2023-10-25T01:09:01.279Z,99916.44
2023-10-25T01:11:31.091Z,99911.91
2023-10-25T01:14:00.292Z,99913.78
2023-10-25T01:16:31.669Z,99909.22
2023-10-25T01:19:00.807Z,99905.78
2023-10-25T01:21:30.522Z,99901.31
2023-10-25T01:24:01.017Z,99908.44
2023-10-25T01:26:30.579Z,99902.13
2023-10-25T01:28:59.985Z,99904.97
2023-10-25T01:31:29.556Z,99893.28
2023-10-25T01:33:58.733Z,99900.44
2023-10-25T01:36:28.444Z,99891.56
2023-10-25T01:38:59.309Z,99874.84
2023-10-25T01:41:28.780Z,99872.94
2023-10-25T01:43:58.082Z,99865.88
2023-10-25T01:46:27.665Z,99864.06
2023-10-25T01:48:56.808Z,99854.34
2023-10-25T01:51:26.914Z,99854.34
2023-10-25T01:53:56.023Z,99864.06
2023-10-25T01:56:26.857Z,99853.63
2023-10-25T01:58:56.171Z,99852.69
2023-10-25T02:01:25.689Z,99846.41
2023-10-25T02:03:55.106Z,99845.63
2023-10-25T02:06:24.701Z,99846.41
2023-10-25T02:08:53.830Z,99845.56
2023-10-25T02:11:23.560Z,99839.34
2023-10-25T02:13:53.997Z,99837.78
2023-10-25T02:16:24.627Z,99836.81
2023-10-25T02:18:54.104Z,99830.56
2023-10-25T02:21:23.483Z,99830.69
2023-10-25T02:23:54.421Z,99819.16
2023-10-25T02:26:24.929Z,99828.22
2023-10-25T02:28:57.440Z,99820.13
2023-10-25T02:31:27.228Z,99818.31
2023-10-25T02:33:56.889Z,99821.91
2023-10-25T02:36:26.829Z,99823.66
2023-10-25T02:38:55.964Z,99814.69
2023-10-25T02:41:25.365Z,99812.09
2023-10-25T02:43:55.120Z,99815.66
2023-10-25T02:46:26.551Z,99813.75
2023-10-25T02:48:55.874Z,99812.81
2023-10-25T02:51:25.079Z,99810.22
2023-10-25T02:53:55.354Z,99814.69
2023-10-25T02:56:25.238Z,99810.91
2023-10-25T02:58:54.333Z,99810.03
2023-10-25T03:01:26.457Z,99799.38
2023-10-25T03:03:55.866Z,99803.88
2023-10-25T03:06:25.129Z,99796.78
2023-10-25T03:08:54.959Z,99798.53
2023-10-25T03:11:24.586Z,99793.03
2023-10-25T03:13:53.723Z,99798.22
2023-10-25T03:16:23.278Z,99793.81
2023-10-25T03:18:54.019Z,99785.66
2023-10-25T03:21:24.459Z,99787.38
2023-10-25T03:23:53.649Z,99783.75
2023-10-25T03:26:23.039Z,99781.19
2023-10-25T03:28:53.740Z,99782.91
2023-10-25T03:31:32.027Z,99781.09
2023-10-25T03:34:04.892Z,99780.31
2023-10-25T03:36:34.536Z,99774.09
2023-10-25T03:39:03.861Z,99769.47
2023-10-25T03:41:33.023Z,99765.88
2023-10-25T03:44:02.245Z,99770.41
2023-10-25T03:46:31.718Z,99766.66
2023-10-25T03:49:00.883Z,99763.09
2023-10-25T03:51:32.408Z,99756.94
2023-10-25T03:54:01.554Z,99752.75
2023-10-25T03:56:30.829Z,99751.81
2023-10-25T03:59:00.008Z,99750.78
2023-10-25T04:01:29.388Z,99751.72
2023-10-25T04:03:58.591Z,99745.44
2023-10-25T04:06:27.851Z,99742.06
2023-10-25T04:08:58.322Z,99741.06
2023-10-25T04:11:27.852Z,99730.38
2023-10-25T04:13:56.959Z,99739.16
2023-10-25T04:16:26.867Z,99726.75
2023-10-25T04:18:56.900Z,99730.28
2023-10-25T04:21:26.614Z,99731.00
2023-10-25T04:23:57.212Z,99726.47
2023-10-25T04:26:26.677Z,99720.25
2023-10-25T04:28:55.906Z,99719.38
2023-10-25T04:31:25.221Z,99713.16
2023-10-25T04:33:54.444Z,99714.13
2023-10-25T04:36:23.948Z,99707.81
2023-10-25T04:38:53.170Z,99706.13
2023-10-25T04:41:23.944Z,99712.31
2023-10-25T04:43:53.109Z,99701.47
2023-10-25T04:46:22.574Z,99705.09
2023-10-25T04:48:51.842Z,99700.53
2023-10-25T04:51:21.205Z,99705.78
2023-10-25T04:53:50.263Z,99706.81
2023-10-25T04:56:25.810Z,99700.59
2023-10-25T04:58:54.971Z,99703.22
2023-10-25T05:01:24.470Z,99708.38
2023-10-25T05:03:53.741Z,99698.47
2023-10-25T05:06:23.329Z,99704.75
2023-10-25T05:08:53.137Z,99703.91
2023-10-25T05:11:30.133Z,99703.81
2023-10-25T05:14:00.370Z,99700.28
2023-10-25T05:16:30.415Z,99697.53
2023-10-25T05:19:00.284Z,99698.31
2023-10-25T05:21:31.797Z,99700.28
2023-10-25T05:24:01.522Z,99700.19
2023-10-25T05:26:35.376Z,99702.88
2023-10-25T05:29:07.258Z,99693.91
2023-10-25T05:31:42.813Z,99703.75
2023-10-25T05:34:13.069Z,99699.44
2023-10-25T05:36:43.084Z,99699.34
2023-10-25T05:39:12.909Z,99702.88
2023-10-25T05:41:44.714Z,99702.88
2023-10-25T05:44:17.638Z,99702.88
2023-10-25T05:46:48.376Z,99701.91
2023-10-25T05:49:20.271Z,99698.47
2023-10-25T05:51:50.608Z,99699.44
2023-10-25T05:54:21.039Z,99693.13
2023-10-25T05:56:52.383Z,99702.78
2023-10-25T05:59:22.288Z,99702.09
2023-10-25T06:01:55.931Z,99694.09
2023-10-25T06:04:28.554Z,99695.72
2023-10-25T06:06:58.747Z,99694.88
2023-10-25T06:09:28.611Z,99692.97
2023-10-25T06:12:00.249Z,99693.91
2023-10-25T06:14:31.127Z,99695.78
2023-10-25T06:17:03.570Z,99698.41
2023-10-25T06:19:33.250Z,99692.19
2023-10-25T06:22:02.945Z,99690.44
2023-10-25T06:24:32.055Z,99685.06
2023-10-25T06:27:02.758Z,99692.19
2023-10-25T06:29:32.500Z,99693.13
2023-10-25T06:32:02.156Z,99690.31
2023-10-25T06:34:31.428Z,99693.91
2023-10-25T06:37:01.904Z,99690.44
2023-10-25T06:39:31.980Z,99688.56
2023-10-25T06:42:04.053Z,99683.16
2023-10-25T06:44:35.355Z,99683.06
2023-10-25T06:47:07.493Z,99688.50
2023-10-25T06:49:37.469Z,99679.72
2023-10-25T06:52:07.860Z,99681.31
2023-10-25T06:54:37.918Z,99680.50
2023-10-25T06:57:10.159Z,99673.31
2023-10-25T06:59:41.239Z,99668.84
2023-10-25T07:02:34.808Z,99677.56
2023-10-25T07:05:11.288Z,99670.50
2023-10-25T07:07:42.246Z,99676.72
2023-10-25T07:10:12.742Z,99671.28
2023-10-25T07:12:43.922Z,99677.38
2023-10-25T07:15:13.582Z,99670.16
2023-10-25T07:17:43.721Z,99662.81
2023-10-25T07:20:14.032Z,99673.59
2023-10-25T07:22:43.853Z,99663.88
2023-10-25T07:25:13.026Z,99669.22
2023-10-25T07:27:43.707Z,99666.47
2023-10-25T07:30:13.308Z,99666.56
2023-10-25T07:32:42.944Z,99663.78
2023-10-25T07:35:12.598Z,99658.34
2023-10-25T07:37:42.130Z,99654.81
2023-10-25T07:40:12.333Z,99654.69
2023-10-25T07:42:43.331Z,99656.44
2023-10-25T07:45:13.025Z,99658.13
2023-10-25T07:47:42.500Z,99655.56
2023-10-25T07:50:11.934Z,99662.47
2023-10-25T07:52:41.346Z,99653.41
2023-10-25T07:55:42.048Z,99654.44
2023-10-25T08:00:34.184Z,99649.88
2023-10-25T08:03:03.729Z,99647.06
2023-10-25T08:05:32.938Z,99652.44
2023-10-25T08:08:02.714Z,99650.50
2023-10-25T08:10:31.796Z,99648.75
2023-10-25T08:13:02.661Z,99650.50
2023-10-25T08:15:31.873Z,99647.81
2023-10-25T08:18:01.698Z,99646.19
2023-10-25T08:20:31.141Z,99647.97
2023-10-25T08:23:00.880Z,99645.41
2023-10-25T08:25:30.057Z,99645.22
2023-10-25T08:27:59.288Z,99645.31
2023-10-25T08:30:30.905Z,99647.97
2023-10-25T08:33:00.620Z,99638.22
2023-10-25T08:35:30.650Z,99645.31
2023-10-25T08:38:00.153Z,99637.13
2023-10-25T08:40:29.504Z,99647.06
2023-10-25T08:43:00.194Z,99635.56
2023-10-25T08:45:34.141Z,99642.63
2023-10-25T08:48:04.430Z,99647.06
2023-10-25T08:50:33.935Z,99645.31
2023-10-25T08:53:03.458Z,99646.09
2023-10-25T08:55:32.748Z,99647.47
2023-10-25T08:58:01.902Z,99647.47
2023-10-25T09:00:47.345Z,99644.09
2023-10-25T09:03:41.937Z,99657.53
2023-10-25T09:06:12.667Z,99659.28
2023-10-25T09:08:44.861Z,99651.28
2023-10-25T09:11:14.712Z,99652.03
2023-10-25T09:13:44.331Z,99646.19
2023-10-25T09:16:17.843Z,99644.19
2023-10-25T09:18:47.439Z,99645.94
2023-10-25T09:21:16.708Z,99648.50
2023-10-25T09:23:58.391Z,99641.63
2023-10-25T09:26:27.929Z,99640.59
2023-10-25T09:28:57.312Z,99643.25
2023-10-25T09:31:30.747Z,99644.03
2023-10-25T09:34:02.061Z,99642.28
2023-10-25T09:36:31.462Z,99640.41
2023-10-25T09:39:00.857Z,99629.56
2023-10-25T09:41:33.321Z,99626.97
2023-10-25T09:44:07.514Z,99617.84
2023-10-25T09:46:38.741Z,99621.34
2023-10-25T09:49:09.263Z,99610.94
2023-10-25T09:52:07.115Z,99618.00
2023-10-25T09:54:38.138Z,99613.69
2023-10-25T09:57:07.742Z,99610.13
2023-10-25T09:59:39.675Z,99611.97
2023-10-25T10:02:15.159Z,99612.66
2023-10-25T10:04:52.148Z,99610.84
2023-10-25T10:07:38.554Z,99603.88
2023-10-25T10:10:20.088Z,99607.47
2023-10-25T10:12:49.608Z,99610.44
2023-10-25T10:15:20.794Z,99601.53
2023-10-25T10:17:51.467Z,99603.09
2023-10-25T10:20:30.539Z,99600.25
2023-10-25T10:23:07.464Z,99595.44
2023-10-25T10:25:47.670Z,99594.56
2023-10-25T10:28:17.660Z,99600.00
2023-10-25T10:30:48.903Z,99602.84
2023-10-25T10:33:19.808Z,99600.94
2023-10-25T10:35:50.552Z,99600.84
2023-10-25T10:38:19.946Z,99596.31
2023-10-25T10:40:52.903Z,99601.72
2023-10-25T10:43:22.556Z,99601.72
2023-10-25T10:45:54.849Z,99589.38
2023-10-25T10:48:33.626Z,99597.38
2023-10-25T10:51:03.795Z,99592.06
2023-10-25T10:53:33.041Z,99586.91
2023-10-25T10:56:02.630Z,99592.34
2023-10-25T10:58:31.982Z,99588.69
2023-10-25T11:01:01.733Z,99587.78
2023-10-25T11:03:32.948Z,99584.13
2023-10-25T11:06:07.063Z,99585.34
2023-10-25T11:08:36.504Z,99591.47
2023-10-25T11:11:05.965Z,99589.72
2023-10-25T11:13:35.389Z,99589.88
2023-10-25T11:16:08.356Z,99593.19
2023-10-25T11:18:39.272Z,99589.56
2023-10-25T11:21:08.721Z,99589.56
2023-10-25T11:23:38.732Z,99584.53
2023-10-25T11:26:08.621Z,99581.72
2023-10-25T11:28:40.492Z,99576.53
2023-10-25T11:31:10.025Z,99581.72
2023-10-25T11:33:49.765Z,99572.78
2023-10-25T11:36:19.825Z,99575.44
2023-10-25T11:38:49.014Z,99574.56
2023-10-25T11:41:18.438Z,99572.00
2023-10-25T11:43:47.624Z,99566.78
2023-10-25T11:46:17.860Z,99572.88
2023-10-25T11:48:50.639Z,99566.66
2023-10-25T11:51:21.051Z,99569.34
2023-10-25T11:53:50.463Z,99568.53
2023-10-25T11:56:23.077Z,99559.75
2023-10-25T11:58:52.475Z,99550.97
2023-10-25T12:01:22.287Z,99554.75
2023-10-25T12:03:52.976Z,99553.78
2023-10-25T12:06:23.032Z,99559.03
2023-10-25T12:08:52.982Z,99556.47
2023-10-25T12:11:22.764Z,99558.19
2023-10-25T12:13:51.723Z,99553.16
2023-10-25T12:16:21.361Z,99555.84
2023-10-25T12:18:51.984Z,99552.50
2023-10-25T12:21:21.894Z,99554.03
2023-10-25T12:23:50.993Z,99555.69
2023-10-25T12:26:20.963Z,99553.47
2023-10-25T12:28:49.923Z,99548.19
2023-10-25T12:31:19.295Z,99549.91
2023-10-25T12:33:48.564Z,99545.59
2023-10-25T12:36:19.422Z,99548.94
2023-10-25T12:38:49.810Z,99539.03
2023-10-25T12:41:19.324Z,99540.09
2023-10-25T12:43:49.178Z,99540.94
2023-10-25T12:46:18.893Z,99541.81
2023-10-25T12:48:48.026Z,99538.28
2023-10-25T12:51:19.161Z,99538.38
2023-10-25T12:53:48.361Z,99541.28
2023-10-25T12:56:17.831Z,99531.75
2023-10-25T12:58:47.106Z,99532.50
2023-10-25T13:01:16.503Z,99534.41
2023-10-25T13:03:48.020Z,99538.97
2023-10-25T13:06:19.584Z,99530.97
2023-10-25T13:08:49.236Z,99533.88
2023-10-25T13:11:18.764Z,99535.44
2023-10-25T13:13:47.815Z,99544.66
2023-10-25T13:16:17.380Z,99546.31
2023-10-25T13:18:46.528Z,99547.31
2023-10-25T13:21:15.932Z,99538.53
2023-10-25T13:23:46.569Z,99528.13
2023-10-25T13:26:16.108Z,99530.94
2023-10-25T13:28:45.366Z,99531.66
2023-10-25T13:31:14.734Z,99536.38
2023-10-25T13:33:44.049Z,99538.25
2023-10-25T13:36:13.344Z,99546.13
2023-10-25T13:38:42.446Z,99549.72
2023-10-25T13:41:13.179Z,99545.34
2023-10-25T13:43:42.288Z,99545.34
2023-10-25T13:46:11.687Z,99550.69
2023-10-25T13:48:42.668Z,99556.00
2023-10-25T13:51:12.215Z,99550.75
2023-10-25T13:53:41.454Z,99550.84
2023-10-25T13:56:18.404Z,99550.84
2023-10-25T13:58:47.618Z,99550.06
2023-10-25T14:01:17.104Z,99556.16
2023-10-25T14:03:46.427Z,99557.28
2023-10-25T14:06:18.528Z,99542.22
2023-10-25T14:08:47.769Z,99546.63
2023-10-25T14:11:19.946Z,99545.84
2023-10-25T14:13:51.405Z,99546.72
2023-10-25T14:16:20.992Z,99549.28
2023-10-25T14:18:50.464Z,99549.38
2023-10-25T14:21:19.932Z,99551.06
2023-10-25T14:23:49.909Z,99559.19
2023-10-25T14:26:21.535Z,99554.78
2023-10-25T14:28:50.829Z,99559.19
2023-10-25T14:31:20.314Z,99553.84
2023-10-25T14:33:49.554Z,99549.28
2023-10-25T14:36:19.155Z,99546.63
2023-10-25T14:38:49.554Z,99534.19
2023-10-25T14:41:20.447Z,99536.09
2023-10-25T14:43:50.660Z,99530.69
2023-10-25T14:46:21.132Z,99528.03
2023-10-25T14:48:51.125Z,99520.09
2023-10-25T14:51:27.342Z,99513.19
2023-10-25T14:53:59.019Z,99505.97
2023-10-25T14:56:30.039Z,99503.56
2023-10-25T14:58:59.274Z,99510.53
2023-10-25T15:01:29.150Z,99504.59
2023-10-25T15:03:58.345Z,99506.50
2023-10-25T15:06:29.823Z,99503.03
2023-10-25T15:08:59.691Z,99503.03
2023-10-25T15:11:31.137Z,99506.75
2023-10-25T15:14:00.312Z,99496.13
2023-10-25T15:16:29.757Z,99498.75
2023-10-25T15:18:58.929Z,99501.47
2023-10-25T15:21:29.409Z,99489.00
2023-10-25T15:23:59.032Z,99487.22
2023-10-25T15:26:28.591Z,99485.47
2023-10-25T15:29:00.478Z,99482.91
2023-10-25T15:31:30.021Z,99475.66
2023-10-25T15:34:00.588Z,99479.97
2023-10-25T15:36:31.729Z,99467.56
2023-10-25T15:39:08.928Z,99465.88
2023-10-25T15:41:40.333Z,99465.00
2023-10-25T15:44:10.988Z,99462.44
2023-10-25T15:46:40.625Z,99462.59
2023-10-25T15:49:09.763Z,99473.19
2023-10-25T15:51:39.739Z,99461.66
2023-10-25T15:54:08.908Z,99475.06
2023-10-25T15:56:38.514Z,99472.47
2023-10-25T15:59:08.015Z,99476.16
2023-10-25T16:04:13.955Z,99462.78
2023-10-25T16:06:43.858Z,99463.59
2023-10-25T16:09:13.007Z,99458.28
2023-10-25T16:11:42.711Z,99463.59
2023-10-25T16:14:11.853Z,99462.78
2023-10-25T16:16:42.663Z,99454.75
2023-10-25T16:19:11.906Z,99446.78
2023-10-25T16:21:42.475Z,99446.56
2023-10-25T16:24:12.006Z,99455.53
2023-10-25T16:26:41.261Z,99445.91
2023-10-25T16:29:10.698Z,99456.47
2023-10-25T16:31:41.573Z,99444.94
2023-10-25T16:34:15.515Z,99450.22
2023-10-25T16:36:57.197Z,99444.88
2023-10-25T16:39:33.837Z,99439.53
2023-10-25T16:42:03.438Z,99442.13
2023-10-25T16:44:32.885Z,99439.69
2023-10-25T16:47:07.433Z,99441.59
2023-10-25T16:49:36.818Z,99446.00
2023-10-25T16:52:06.584Z,99443.22
2023-10-25T16:54:35.802Z,99445.03
2023-10-25T16:57:05.523Z,99440.56
2023-10-25T16:59:34.660Z,99443.22
2023-10-25T17:02:08.207Z,99448.47
2023-10-25T17:04:37.577Z,99442.28
2023-10-25T17:07:06.961Z,99444.00
2023-10-25T17:09:36.308Z,99439.59
2023-10-25T17:12:07.374Z,99444.88
2023-10-25T17:14:36.691Z,99446.56
2023-10-25T17:17:07.645Z,99450.03
2023-10-25T17:19:37.043Z,99445.56
2023-10-25T17:22:06.818Z,99444.69
2023-10-25T17:24:36.712Z,99442.78
2023-10-25T17:27:06.802Z,99438.50
2023-10-25T17:29:36.085Z,99437.56
2023-10-25T17:32:07.333Z,99440.31
2023-10-25T17:34:37.014Z,99437.66
2023-10-25T17:37:06.741Z,99443.75
2023-10-25T17:39:36.014Z,99446.56
2023-10-25T17:42:06.225Z,99441.09
2023-10-25T17:44:36.352Z,99451.75
2023-10-25T17:47:07.627Z,99449.00
2023-10-25T17:49:36.877Z,99446.44
2023-10-25T17:52:06.577Z,99444.69
2023-10-25T17:54:36.035Z,99453.66
2023-10-25T17:57:07.589Z,99458.97
2023-10-25T17:59:38.445Z,99457.19
2023-10-25T18:02:09.311Z,99466.91
2023-10-25T18:04:38.676Z,99466.03
2023-10-25T18:07:08.972Z,99463.34
2023-10-25T18:09:38.275Z,99461.56
2023-10-25T18:12:08.042Z,99451.91
2023-10-25T18:14:38.901Z,99452.88
2023-10-25T18:17:09.787Z,99446.78
2023-10-25T18:19:39.211Z,99441.59
2023-10-25T18:22:08.727Z,99445.03
2023-10-25T18:24:37.987Z,99450.38
2023-10-25T18:27:07.596Z,99445.03
2023-10-25T18:30:01.982Z,99442.56
2023-10-25T18:32:29.033Z,99443.47
2023-10-25T18:34:59.075Z,99447.09
2023-10-25T18:37:29.107Z,99453.28
2023-10-25T18:39:59.816Z,99452.44
2023-10-25T18:42:31.262Z,99450.59
2023-10-25T18:45:05.034Z,99455.94
2023-10-25T18:47:37.745Z,99462.16
2023-10-25T18:50:07.639Z,99448.19
2023-10-25T18:52:39.998Z,99454.50
2023-10-25T18:55:09.386Z,99459.13
2023-10-25T18:57:41.687Z,99449.31
2023-10-25T19:00:13.040Z,99447.69
2023-10-25T19:02:45.855Z,99450.66
2023-10-25T19:06:23.198Z,99447.16
2023-10-25T19:08:26.699Z,99448.00
2023-10-25T19:10:54.553Z,99443.63
2023-10-25T19:13:25.157Z,99446.19
2023-10-25T19:15:54.441Z,99441.91
2023-10-25T19:18:25.549Z,99441.06
2023-10-25T19:20:57.934Z,99440.53
2023-10-25T19:23:27.774Z,99439.47
2023-10-25T19:25:56.978Z,99447.75
2023-10-25T19:28:26.574Z,99438.78
2023-10-25T19:30:56.876Z,99442.31
2023-10-25T19:33:29.054Z,99444.13
2023-10-25T19:35:58.680Z,99444.59
2023-10-25T19:38:28.731Z,99438.44
2023-10-25T19:40:58.406Z,99436.69
2023-10-25T19:43:27.839Z,99436.53
2023-10-25T19:45:56.996Z,99441.09
2023-10-25T19:48:27.866Z,99437.03
2023-10-25T19:50:57.087Z,99430.16
2023-10-25T19:53:26.501Z,99436.16
2023-10-25T19:55:55.850Z,99430.94
2023-10-25T19:58:26.856Z,99428.25
2023-10-25T20:00:58.429Z,99421.63
2023-10-25T20:03:29.330Z,99420.84
2023-10-25T20:06:07.380Z,99419.44
2023-10-25T20:08:37.511Z,99424.06
2023-10-25T20:11:07.168Z,99419.53
2023-10-25T20:13:40.001Z,99425.53
2023-10-25T20:16:18.215Z,99419.53
2023-10-25T20:18:57.101Z,99414.97
2023-10-25T20:21:34.302Z,99407.06
2023-10-25T20:24:13.875Z,99413.50
2023-10-25T20:27:00.277Z,99415.13
2023-10-25T20:29:31.446Z,99413.66
2023-10-25T20:32:20.898Z,99414.66
2023-10-25T20:35:11.961Z,99418.19
2023-10-25T20:37:53.676Z,99408.41
2023-10-25T20:40:27.123Z,99409.19
2023-10-25T20:43:05.851Z,99404.72
2023-10-25T20:45:53.936Z,99406.53
2023-10-25T20:48:46.773Z,99412.78
2023-10-25T20:51:38.702Z,99412.88
2023-10-25T20:54:08.099Z,99408.47
2023-10-25T20:56:37.300Z,99411.13
2023-10-25T20:59:06.540Z,99413.03
2023-10-25T21:01:35.850Z,99413.25
2023-10-25T21:04:05.103Z,99415.91
2023-10-25T21:06:36.301Z,99402.69
2023-10-25T21:09:07.582Z,99414.22
2023-10-25T21:11:37.290Z,99412.66
2023-10-25T21:14:06.554Z,99410.78
2023-10-25T21:16:35.698Z,99408.09
2023-10-25T21:19:06.636Z,99414.34
2023-10-25T21:21:37.548Z,99405.59
2023-10-25T21:24:07.816Z,99407.31
2023-10-25T21:26:38.449Z,99404.03
2023-10-25T21:29:11.281Z,99402.16
2023-10-25T21:31:41.212Z,99389.78
2023-10-25T21:34:10.443Z,99393.47
2023-10-25T21:36:41.189Z,99397.00
2023-10-25T21:39:10.491Z,99386.16
2023-10-25T21:41:40.348Z,99382.72
2023-10-25T21:44:09.393Z,99375.69
2023-10-25T21:46:38.758Z,99381.03
2023-10-25T21:49:07.919Z,99382.13
2023-10-25T21:51:37.457Z,99382.19
2023-10-25T21:54:08.413Z,99391.03
2023-10-25T21:56:37.970Z,99395.44
2023-10-25T21:59:50.674Z,99381.16
2023-10-25T22:01:57.238Z,99387.44
2023-10-25T22:04:26.359Z,99382.25
2023-10-25T22:09:49.620Z,99374.25
2023-10-25T22:12:19.985Z,99368.06
2023-10-25T22:14:49.254Z,99368.06
2023-10-25T22:17:26.711Z,99370.72
2023-10-25T22:19:55.846Z,99362.81
2023-10-25T22:22:25.254Z,99368.88
2023-10-25T22:24:55.808Z,99366.16
2023-10-25T22:27:25.278Z,99363.75
2023-10-25T22:29:54.412Z,99357.59
2023-10-25T22:32:23.921Z,99361.09
2023-10-25T22:34:55.835Z,99345.97
2023-10-25T22:37:25.327Z,99352.19
2023-10-25T22:39:55.846Z,99350.63
2023-10-25T22:42:25.870Z,99352.25
2023-10-25T22:44:54.751Z,99353.09
2023-10-25T22:47:24.339Z,99344.19
2023-10-25T22:49:53.459Z,99348.72
2023-10-25T22:52:22.911Z,99342.72
2023-10-25T22:54:51.967Z,99344.53
2023-10-25T22:57:22.829Z,99344.53
2023-10-25T22:59:53.795Z,99339.09
2023-10-25T23:02:23.367Z,99340.91
2023-10-25T23:04:52.522Z,99340.13
2023-10-25T23:07:21.814Z,99337.44
2023-10-25T23:09:51.060Z,99343.72
2023-10-25T23:12:21.936Z,99331.22
2023-10-25T23:14:51.175Z,99337.44
2023-10-25T23:17:20.545Z,99325.78
2023-10-25T23:19:49.810Z,99338.22
2023-10-25T23:22:20.881Z,99330.25
2023-10-25T23:24:50.193Z,99330.25
2023-10-25T23:27:21.052Z,99335.56
2023-10-25T23:29:52.149Z,99328.47
2023-10-25T23:32:21.831Z,99329.31
2023-10-25T23:34:50.942Z,99324.94
2023-10-25T23:37:20.412Z,99324.94
2023-10-25T23:39:49.589Z,99328.53
2023-10-25T23:42:18.991Z,99324.94
2023-10-25T23:44:49.851Z,99326.56
2023-10-25T23:47:19.547Z,99318.69
2023-10-25T23:49:48.768Z,99321.34
2023-10-25T23:52:18.131Z,99319.44
2023-10-25T23:54:54.052Z,99316.88
2023-10-25T23:57:25.660Z,99313.25
2023-10-25T23:59:56.415Z,99310.59
